Time;durP1;ratioP1;P1;durP2;ratioP2;P2;SDS_P1;SDS_P2;PMS_P1;PMS_P2;Temp;Humidity;BMP_temperature;BMP_pressure;BME280_temperature;BME280_humidity;BME280_pressure;Samples;Min_cycle;Max_cycle;Signal;HPM_P1;HPM_P2
2022/10/02 00:02:13;;;;;;;20.73;4.97;;;11.20;99.90;;;;;;5062453;28;20498;-52
2022/10/02 00:04:42;;;;;;;13.65;4.70;;;11.20;99.90;;;;;;5050407;28;20032;-50
2022/10/02 00:07:11;;;;;;;18.60;5.20;;;11.30;99.90;;;;;;5056726;28;20052;-53
2022/10/02 00:09:45;;;;;;;20.80;5.55;;;11.30;99.90;;;;;;5027203;28;20193;-49
2022/10/02 00:12:16;;;;;;;19.02;5.45;;;11.30;99.90;;;;;;5060700;28;20075;-49
2022/10/02 00:14:45;;;;;;;19.95;5.55;;;11.30;99.90;;;;;;5080420;28;20483;-49
2022/10/02 00:17:26;;;;;;;14.43;5.05;;;11.40;99.90;;;;;;5080883;28;20040;-51
2022/10/02 00:19:56;;;;;;;17.05;4.30;;;11.40;99.90;;;;;;5081921;28;20342;-52
2022/10/02 00:22:49;;;;;;;18.88;5.30;;;11.50;99.90;;;;;;5079967;28;20067;-52
2022/10/02 00:25:50;;;;;;;14.85;3.55;;;11.60;99.90;;;;;;5077482;28;20121;-41
2022/10/02 00:28:38;;;;;;;12.52;3.17;;;11.70;99.90;;;;;;5083025;28;20097;-49
2022/10/02 00:31:10;;;;;;;10.52;3.25;;;11.80;99.90;;;;;;5084344;28;20179;-49
2022/10/02 00:33:49;;;;;;;16.42;3.92;;;11.80;99.90;;;;;;5080451;28;20119;-43
2022/10/02 00:36:26;;;;;;;10.30;2.97;;;11.70;99.90;;;;;;5077362;28;20376;-41
2022/10/02 00:39:00;;;;;;;14.70;3.38;;;11.80;99.90;;;;;;5059884;28;20079;-41
2022/10/02 00:41:29;;;;;;;15.48;3.10;;;11.80;99.90;;;;;;5079997;28;20864;-50
2022/10/02 00:44:04;;;;;;;12.70;3.38;;;11.70;99.90;;;;;;5075504;28;20818;-49
2022/10/02 00:46:43;;;;;;;14.57;3.40;;;11.70;99.90;;;;;;5066786;28;20220;-48
2022/10/02 00:49:36;;;;;;;10.90;2.70;;;11.70;99.90;;;;;;5080893;28;20192;-52
2022/10/02 00:52:28;;;;;;;8.60;2.80;;;11.60;99.90;;;;;;5081213;28;20044;-51
2022/10/02 00:54:56;;;;;;;13.13;3.80;;;11.60;99.90;;;;;;5077371;28;20051;-48
2022/10/02 00:57:43;;;;;;;11.18;2.78;;;11.50;99.90;;;;;;5076546;28;20723;-52
2022/10/02 01:00:19;;;;;;;10.95;2.80;;;11.50;99.90;;;;;;5071590;28;20063;-50
2022/10/02 01:03:13;;;;;;;12.02;3.40;;;11.50;99.90;;;;;;5079561;28;20060;-48
2022/10/02 01:05:39;;;;;;;11.80;3.58;;;11.50;99.90;;;;;;5077933;28;20056;-51
2022/10/02 01:08:06;;;;;;;6.85;2.72;;;11.50;99.90;;;;;;5083084;28;20078;-49
2022/10/02 01:10:33;;;;;;;12.27;3.63;;;11.50;99.90;;;;;;5069115;28;20045;-50
2022/10/02 01:13:00;;;;;;;14.98;3.72;;;11.50;99.90;;;;;;5081237;28;20508;-51
2022/10/02 01:15:36;;;;;;;11.25;3.80;;;11.50;99.90;;;;;;5093063;28;20044;-51
2022/10/02 01:18:03;;;;;;;14.35;3.08;;;11.50;99.90;;;;;;5074348;28;20127;-51
2022/10/02 01:20:53;;;;;;;14.45;2.95;;;11.50;99.90;;;;;;5080760;28;20770;-48
2022/10/02 01:23:22;;;;;;;11.32;2.80;;;11.40;99.90;;;;;;5076521;28;20040;-52
2022/10/02 01:25:49;;;;;;;10.07;3.00;;;11.50;99.90;;;;;;5061841;28;20116;-49
2022/10/02 01:28:16;;;;;;;9.45;3.35;;;11.60;99.90;;;;;;5077090;28;20530;-49
2022/10/02 01:30:46;;;;;;;10.15;3.40;;;11.60;99.90;;;;;;5059551;28;20060;-49
2022/10/02 01:33:16;;;;;;;12.02;3.28;;;11.60;99.90;;;;;;5076998;28;20446;-52
2022/10/02 01:35:43;;;;;;;12.80;3.30;;;11.60;99.90;;;;;;5070735;28;20178;-53
2022/10/02 01:38:15;;;;;;;12.90;3.20;;;11.60;99.90;;;;;;5079686;28;20051;-52
2022/10/02 01:40:41;;;;;;;13.32;4.10;;;11.60;99.90;;;;;;5062148;28;20117;-50
2022/10/02 01:43:18;;;;;;;12.00;3.35;;;11.70;99.90;;;;;;5078533;28;20514;-50
2022/10/02 01:46:09;;;;;;;10.93;3.17;;;11.70;99.90;;;;;;5068156;28;20923;-48
2022/10/02 01:48:42;;;;;;;14.23;3.30;;;11.60;99.90;;;;;;5076105;28;20392;-51
2022/10/02 01:51:19;;;;;;;12.98;3.38;;;11.70;99.90;;;;;;5075282;28;20047;-51
2022/10/02 01:53:52;;;;;;;12.73;3.60;;;11.60;99.90;;;;;;5072846;28;20048;-43
2022/10/02 01:56:41;;;;;;;11.85;3.70;;;11.60;99.90;;;;;;5076521;28;20419;-42
2022/10/02 01:59:31;;;;;;;16.92;4.05;;;11.70;99.90;;;;;;5075827;28;20124;-49
2022/10/02 02:02:18;;;;;;;14.32;4.25;;;11.70;99.90;;;;;;5075617;28;20443;-50
2022/10/02 02:04:48;;;;;;;17.85;4.68;;;11.70;99.90;;;;;;5074478;28;20477;-53
2022/10/02 02:07:58;;;;;;;15.60;4.80;;;11.80;99.90;;;;;;5078163;28;20067;-50
2022/10/02 02:11:00;;;;;;;17.05;4.65;;;11.70;99.90;;;;;;5034351;28;20048;-49
2022/10/02 02:13:35;;;;;;;14.45;4.63;;;11.70;99.90;;;;;;5075777;28;20775;-53
2022/10/02 02:16:12;;;;;;;20.02;4.28;;;11.70;99.90;;;;;;5074936;28;20650;-53
2022/10/02 02:18:42;;;;;;;24.33;5.25;;;11.60;99.90;;;;;;5078529;28;20105;-52
2022/10/02 02:21:19;;;;;;;12.35;4.30;;;11.60;99.90;;;;;;5074478;28;20040;-42
2022/10/02 02:23:46;;;;;;;20.90;4.40;;;11.60;99.90;;;;;;5058389;28;20118;-50
2022/10/02 02:26:17;;;;;;;14.05;4.43;;;11.50;99.90;;;;;;5073612;28;20048;-41
2022/10/02 02:28:53;;;;;;;13.07;4.25;;;11.50;99.90;;;;;;5071132;28;20495;-41
2022/10/02 02:31:24;;;;;;;17.75;4.13;;;11.50;99.90;;;;;;5064143;28;20051;-42
2022/10/02 02:33:57;;;;;;;18.15;4.40;;;11.50;99.90;;;;;;5068968;28;20159;-41
2022/10/02 02:36:28;;;;;;;15.88;3.53;;;11.40;99.90;;;;;;5075564;28;20132;-42
2022/10/02 02:38:59;;;;;;;16.85;4.25;;;11.40;99.90;;;;;;5048935;28;20050;-41
2022/10/02 02:41:30;;;;;;;17.33;4.40;;;11.50;99.90;;;;;;5077050;28;20063;-44
2022/10/02 02:44:29;;;;;;;12.65;4.25;;;11.50;99.90;;;;;;5076292;28;20513;-42
2022/10/02 02:47:12;;;;;;;14.05;3.92;;;11.60;99.90;;;;;;5074787;28;20438;-42
2022/10/02 02:49:54;;;;;;;15.50;3.85;;;11.50;99.90;;;;;;5075172;28;20059;-49
2022/10/02 02:52:42;;;;;;;18.27;4.38;;;11.60;99.90;;;;;;5064797;28;20039;-41
2022/10/02 02:55:21;;;;;;;17.95;4.20;;;11.50;99.90;;;;;;5064793;28;20625;-44
2022/10/02 02:57:51;;;;;;;17.10;4.93;;;11.60;99.90;;;;;;5075375;28;20048;-42
2022/10/02 03:00:18;;;;;;;15.18;4.18;;;11.60;99.90;;;;;;5056898;28;20052;-42
2022/10/02 03:02:45;;;;;;;18.05;4.35;;;11.60;99.90;;;;;;5077411;28;20090;-41
2022/10/02 03:05:17;;;;;;;15.27;4.70;;;11.70;99.90;;;;;;5077470;28;20109;-42
2022/10/02 03:07:49;;;;;;;;;;;11.60;99.90;;;;;;5068913;28;20750;-41
2022/10/02 03:10:18;;;;;;;;;;;11.70;99.90;;;;;;5075761;28;19935;-41
2022/10/02 03:13:09;;;;;;;16.50;3.83;;;11.60;99.90;;;;;;5055686;28;20013;-42
2022/10/02 03:16:16;;;;;;;9.43;3.47;;;11.60;99.90;;;;;;5072734;28;20048;-51
2022/10/02 03:19:01;;;;;;;16.65;3.95;;;11.50;99.90;;;;;;5071695;28;20040;-52
2022/10/02 03:21:39;;;;;;;14.77;3.85;;;11.50;99.90;;;;;;5075726;28;20126;-50
2022/10/02 03:24:16;;;;;;;12.20;3.47;;;11.50;99.90;;;;;;5076787;28;20061;-51
2022/10/02 03:26:59;;;;;;;11.23;3.00;;;11.50;99.90;;;;;;5076455;28;20465;-51
2022/10/02 03:29:42;;;;;;;10.93;3.03;;;11.50;99.90;;;;;;5078671;28;20048;-51
2022/10/02 03:32:12;;;;;;;12.60;2.50;;;11.40;99.90;;;;;;5074161;28;20077;-49
2022/10/02 03:34:39;;;;;;;15.82;3.13;;;11.40;99.90;;;;;;5080246;28;20044;-42
2022/10/02 03:37:06;;;;;;;13.68;2.80;;;11.40;99.90;;;;;;5058189;28;20058;-43
2022/10/02 03:39:32;;;;;;;11.18;2.72;;;11.40;99.90;;;;;;5077859;28;20048;-51
2022/10/02 03:41:59;;;;;;;12.85;2.83;;;11.40;99.90;;;;;;5073865;28;20044;-48
2022/10/02 03:44:26;;;;;;;8.98;2.67;;;11.40;99.90;;;;;;5079123;28;20079;-51
2022/10/02 03:46:52;;;;;;;8.30;2.33;;;11.40;99.90;;;;;;5069820;28;20569;-48
2022/10/02 03:49:18;;;;;;;9.68;3.00;;;11.40;99.90;;;;;;5075029;28;20048;-50
2022/10/02 03:51:47;;;;;;;10.65;2.83;;;11.30;99.90;;;;;;5059148;28;20142;-48
2022/10/02 03:54:20;;;;;;;11.75;2.70;;;11.30;99.90;;;;;;5078742;28;20147;-49
2022/10/02 03:56:56;;;;;;;13.43;3.05;;;11.20;99.90;;;;;;5076799;28;20121;-41
2022/10/02 04:00:03;;;;;;;10.15;2.92;;;11.20;99.90;;;;;;5074552;28;20043;-41
2022/10/02 04:02:37;;;;;;;9.27;2.28;;;11.20;99.90;;;;;;5075750;28;20755;-48
2022/10/02 04:05:32;;;;;;;9.60;2.58;;;11.10;99.90;;;;;;5059244;28;20053;-49
2022/10/02 04:08:23;;;;;;;11.43;3.05;;;11.10;99.90;;;;;;5074542;28;20048;-42
2022/10/02 04:11:17;;;;;;;12.73;3.05;;;11.10;99.90;;;;;;5096169;28;20076;-42
2022/10/02 04:13:54;;;;;;;9.15;2.33;;;11.10;99.90;;;;;;5069526;28;20050;-44
2022/10/02 04:16:28;;;;;;;12.52;2.58;;;11.10;99.90;;;;;;5070715;28;20125;-41
2022/10/02 04:19:16;;;;;;;14.15;2.72;;;11.20;99.90;;;;;;5060842;28;20040;-41
2022/10/02 04:21:50;;;;;;;16.98;2.78;;;11.20;99.90;;;;;;5054624;28;20448;-42
2022/10/02 04:24:28;;;;;;;10.88;2.80;;;11.20;99.90;;;;;;5076844;28;20135;-43
2022/10/02 04:27:05;;;;;;;12.07;2.70;;;11.20;99.90;;;;;;5074030;28;20120;-55
2022/10/02 04:29:37;;;;;;;15.50;2.80;;;11.10;99.90;;;;;;5074570;28;20738;-51
2022/10/02 04:32:15;;;;;;;9.38;3.20;;;11.10;99.90;;;;;;5074284;28;20419;-51
2022/10/02 04:34:42;;;;;;;14.35;3.47;;;11.00;99.90;;;;;;5094513;28;20044;-51
2022/10/02 04:37:54;;;;;;;10.98;2.65;;;11.00;99.90;;;;;;5059367;28;20040;-51
2022/10/02 04:40:38;;;;;;;16.85;3.72;;;11.00;99.90;;;;;;5076851;28;20060;-49
2022/10/02 04:43:13;;;;;;;14.00;3.13;;;11.00;99.90;;;;;;5056431;28;20048;-52
2022/10/02 04:45:59;;;;;;;15.45;3.83;;;11.00;99.90;;;;;;5077604;28;20478;-51
2022/10/02 04:48:43;;;;;;;12.13;2.80;;;10.90;99.90;;;;;;5070823;28;20048;-51
2022/10/02 04:51:16;;;;;;;11.20;3.70;;;10.90;99.90;;;;;;5070441;28;20158;-52
2022/10/02 04:53:51;;;;;;;15.25;3.50;;;10.90;99.90;;;;;;5041573;28;20459;-40
2022/10/02 04:56:39;;;;;;;17.70;3.58;;;10.90;99.90;;;;;;5074580;28;20040;-40
2022/10/02 04:59:43;;;;;;;16.50;3.42;;;10.80;99.90;;;;;;5078901;28;20387;-43
2022/10/02 05:02:24;;;;;;;12.90;3.35;;;10.80;99.90;;;;;;5078862;28;20608;-41
2022/10/02 05:05:05;;;;;;;18.23;4.00;;;10.80;99.90;;;;;;5074992;28;20800;-42
2022/10/02 05:07:50;;;;;;;18.08;3.65;;;10.80;99.90;;;;;;5073250;28;20044;-41
2022/10/02 05:10:41;;;;;;;11.43;3.88;;;10.80;99.90;;;;;;5074993;28;20052;-41
2022/10/02 05:13:29;;;;;;;12.48;3.67;;;10.70;99.90;;;;;;5079245;28;20075;-42
2022/10/02 05:16:17;;;;;;;16.48;4.30;;;10.70;99.90;;;;;;5078778;28;20091;-41
2022/10/02 05:19:11;;;;;;;22.20;4.28;;;10.70;99.90;;;;;;5056781;28;20570;-42
2022/10/02 05:21:50;;;;;;;19.88;4.60;;;10.70;99.90;;;;;;5056771;28;20645;-41
2022/10/02 05:24:43;;;;;;;19.73;4.18;;;10.70;99.90;;;;;;5069597;28;20032;-50
2022/10/02 05:27:31;;;;;;;17.98;4.80;;;10.60;99.90;;;;;;5044890;28;20162;-50
2022/10/02 05:30:12;;;;;;;17.13;4.50;;;10.70;99.90;;;;;;5071315;28;20801;-51
2022/10/02 05:33:12;;;;;;;16.45;4.68;;;10.60;99.90;;;;;;5075020;28;20044;-41
2022/10/02 05:35:56;;;;;;;23.40;5.60;;;10.60;99.90;;;;;;5057145;28;20089;-41
2022/10/02 05:39:01;;;;;;;14.45;4.38;;;10.60;99.90;;;;;;5072773;28;20414;-41
2022/10/02 05:41:57;;;;;;;20.73;5.68;;;10.60;99.90;;;;;;5069807;28;20507;-40
2022/10/02 05:44:50;;;;;;;23.45;5.43;;;10.70;99.90;;;;;;5051947;28;20075;-43
2022/10/02 05:47:47;;;;;;;15.27;4.30;;;10.60;99.90;;;;;;5071311;28;20052;-43
2022/10/02 05:50:21;;;;;;;22.30;4.93;;;10.60;99.90;;;;;;5072282;28;20431;-42
2022/10/02 05:53:07;;;;;;;14.48;5.25;;;10.60;99.90;;;;;;5057917;28;20398;-42
2022/10/02 05:55:53;;;;;;;25.85;5.93;;;10.70;99.90;;;;;;5055745;28;20071;-39
2022/10/02 05:58:35;;;;;;;17.15;4.78;;;10.70;99.90;;;;;;5090416;28;20044;-41
2022/10/02 06:01:26;;;;;;;17.77;4.93;;;10.70;99.90;;;;;;5072980;28;20080;-41
2022/10/02 06:04:10;;;;;;;20.67;4.72;;;10.80;99.90;;;;;;5074612;28;20036;-43
2022/10/02 06:06:52;;;;;;;14.65;4.90;;;10.80;99.90;;;;;;5055035;28;20052;-41
2022/10/02 06:09:24;;;;;;;17.40;5.22;;;10.90;99.90;;;;;;5039503;28;20044;-41
2022/10/02 06:12:01;;;;;;;21.02;5.38;;;10.80;99.90;;;;;;5069016;28;20048;-42
2022/10/02 06:14:46;;;;;;;17.60;5.05;;;10.80;99.90;;;;;;5073484;28;20052;-42
2022/10/02 06:17:20;;;;;;;17.63;4.82;;;10.90;99.90;;;;;;5071974;28;20052;-51
2022/10/02 06:20:19;;;;;;;19.02;5.25;;;10.90;99.90;;;;;;5056296;28;20577;-42
2022/10/02 06:22:51;;;;;;;15.05;4.47;;;10.90;99.90;;;;;;5072435;28;20082;-40
2022/10/02 06:25:28;;;;;;;21.27;5.50;;;11.00;99.90;;;;;;5072976;28;20048;-41
2022/10/02 06:28:13;;;;;;;20.30;4.47;;;11.00;99.90;;;;;;5072444;28;21036;-43
2022/10/02 06:30:44;;;;;;;19.73;5.10;;;11.10;99.90;;;;;;5071536;28;20469;-40
2022/10/02 06:33:25;;;;;;;20.73;4.25;;;11.20;99.90;;;;;;5069682;28;20044;-40
2022/10/02 06:36:06;;;;;;;17.48;4.07;;;11.20;99.90;;;;;;5055201;28;20036;-41
2022/10/02 06:38:59;;;;;;;15.02;4.40;;;11.30;99.90;;;;;;5053539;28;20056;-44
2022/10/02 06:41:34;;;;;;;20.10;4.30;;;11.30;99.90;;;;;;5070827;28;20063;-40
2022/10/02 06:44:15;;;;;;;18.90;4.07;;;11.40;99.90;;;;;;5074150;28;20048;-40
2022/10/02 06:46:56;;;;;;;20.52;4.43;;;11.50;99.90;;;;;;5071283;28;20044;-40
2022/10/02 06:49:48;;;;;;;19.08;4.97;;;11.70;99.90;;;;;;5057471;28;20135;-41
2022/10/02 06:52:35;;;;;;;21.10;4.23;;;11.70;99.90;;;;;;5070230;28;20714;-40
2022/10/02 06:55:35;;;;;;;12.55;3.83;;;11.90;99.90;;;;;;5074224;28;20048;-42
2022/10/02 06:58:10;;;;;;;15.27;3.95;;;12.10;99.90;;;;;;5037090;28;20036;-41
2022/10/02 07:00:54;;;;;;;16.92;5.47;;;12.30;99.90;;;;;;5058177;28;20142;-42
2022/10/02 07:03:48;;;;;;;14.95;3.30;;;12.60;99.90;;;;;;5068566;28;20770;-41
2022/10/02 07:06:53;;;;;;;11.93;3.13;;;12.90;99.90;;;;;;5077264;28;20052;-42
2022/10/02 07:09:43;;;;;;;17.30;3.05;;;13.10;99.90;;;;;;5079339;28;20421;-42
2022/10/02 07:12:46;;;;;;;16.15;4.65;;;13.40;99.90;;;;;;5060458;28;20052;-43
2022/10/02 07:15:34;;;;;;;16.65;2.80;;;13.70;99.90;;;;;;5066761;28;20609;-41
2022/10/02 07:18:31;;;;;;;12.93;3.03;;;13.90;99.90;;;;;;5077191;28;20752;-45
2022/10/02 07:20:58;;;;;;;13.50;3.20;;;14.30;99.90;;;;;;5079627;28;20040;-41
2022/10/02 07:23:57;;;;;;;13.27;2.60;;;14.60;99.90;;;;;;5076116;28;20414;-45
2022/10/02 07:26:41;;;;;;;11.40;3.70;;;14.70;99.90;;;;;;5073131;28;20051;-43
2022/10/02 07:29:43;;;;;;;12.65;3.45;;;14.80;99.90;;;;;;5073969;28;20044;-42
2022/10/02 07:32:16;;;;;;;12.27;3.08;;;14.90;99.90;;;;;;5072822;28;20043;-48
2022/10/02 07:34:59;;;;;;;12.30;2.90;;;15.20;99.90;;;;;;5074507;28;20071;-48
2022/10/02 07:37:44;;;;;;;14.18;3.00;;;15.50;99.90;;;;;;5074220;28;20547;-51
2022/10/02 07:40:22;;;;;;;11.00;2.58;;;15.90;99.90;;;;;;5055364;28;20044;-49
2022/10/02 07:43:15;;;;;;;16.00;2.78;;;16.20;99.90;;;;;;5071121;28;20055;-52
2022/10/02 07:46:08;;;;;;;13.35;3.03;;;16.20;99.90;;;;;;5069440;28;20065;-52
2022/10/02 07:48:37;;;;;;;12.35;2.92;;;15.90;99.90;;;;;;5069328;28;20050;-49
2022/10/02 07:54:29;;;;;;;11.02;2.78;;;15.10;99.90;;;;;;5066837;28;20048;-47
2022/10/02 07:57:01;;;;;;;12.43;2.80;;;14.70;99.90;;;;;;5053902;28;20044;-41
2022/10/02 07:59:30;;;;;;;9.63;2.38;;;14.70;99.90;;;;;;5067688;28;20483;-41
2022/10/02 08:01:57;;;;;;;15.68;3.80;;;15.10;99.90;;;;;;5072962;28;20055;-46
2022/10/02 08:04:30;;;;;;;12.45;2.60;;;15.80;99.90;;;;;;5068004;28;20044;-53
2022/10/02 08:07:03;;;;;;;13.05;2.63;;;16.50;99.90;;;;;;5038264;28;20806;-42
2022/10/02 08:09:37;;;;;;;9.77;2.80;;;17.50;99.90;;;;;;5070974;28;20056;-42
2022/10/02 08:12:40;;;;;;;13.23;3.55;;;17.90;99.90;;;;;;5064855;28;20052;-41
2022/10/02 08:15:18;;;;;;;14.77;2.97;;;18.10;99.90;;;;;;5065967;28;20036;-42
2022/10/02 08:17:46;;;;;;;11.18;2.83;;;18.60;99.90;;;;;;5071955;28;20048;-54
2022/10/02 08:20:42;;;;;;;12.40;3.33;;;19.10;99.90;;;;;;5081722;28;20052;-54
2022/10/02 08:23:28;;;;;;;10.27;2.55;;;19.10;99.90;;;;;;5075085;28;20610;-42
2022/10/02 08:26:03;;;;;;;13.27;2.90;;;18.70;99.90;;;;;;5077104;28;20047;-44
2022/10/02 08:29:00;;;;;;;11.07;2.90;;;18.30;99.90;;;;;;5063497;28;20101;-44
2022/10/02 08:31:26;;;;;;;10.52;2.65;;;18.50;99.90;;;;;;5095766;28;20040;-42
2022/10/02 08:33:54;;;;;;;13.60;2.75;;;18.80;99.90;;;;;;5073677;28;20130;-46
2022/10/02 08:36:23;;;;;;;9.93;3.20;;;19.30;99.90;;;;;;5078273;28;20052;-54
2022/10/02 08:39:11;;;;;;;13.82;2.92;;;19.50;99.90;;;;;;5070764;28;20048;-54
2022/10/02 08:41:51;;;;;;;11.20;3.35;;;19.50;99.90;;;;;;5078114;28;20394;-54
2022/10/02 08:44:48;;;;;;;8.60;2.63;;;19.80;99.90;;;;;;5059374;28;20538;-44
2022/10/02 08:47:46;;;;;;;11.20;2.70;;;20.20;99.90;;;;;;5076762;28;20544;-45
2022/10/02 08:50:41;;;;;;;8.95;2.42;;;20.30;99.90;;;;;;5072681;28;20041;-46
2022/10/02 08:53:36;;;;;;;10.73;4.35;;;20.60;99.90;;;;;;5074037;28;20048;-42
2022/10/02 08:56:20;;;;;;;10.77;2.63;;;20.70;99.90;;;;;;5072522;28;20040;-45
2022/10/02 08:58:49;;;;;;;13.98;4.25;;;21.00;99.90;;;;;;5074976;28;20087;-44
2022/10/02 09:01:41;;;;;;;12.80;3.60;;;21.30;99.90;;;;;;5073298;28;20052;-43
2022/10/02 09:04:17;;;;;;;8.25;2.53;;;21.20;99.90;;;;;;5079291;28;20144;-43
2022/10/02 09:07:04;;;;;;;12.07;2.53;;;21.40;99.90;;;;;;5073950;28;20233;-42
2022/10/02 09:09:30;;;;;;;11.07;3.45;;;21.60;99.90;;;;;;5055155;28;20083;-44
2022/10/02 09:12:15;;;;;;;9.63;2.38;;;21.70;99.90;;;;;;5076797;28;20060;-44
2022/10/02 09:14:52;;;;;;;11.82;3.03;;;21.60;99.90;;;;;;5077756;28;20044;-46
2022/10/02 09:17:35;;;;;;;11.85;2.90;;;21.60;99.90;;;;;;5050200;28;20048;-52
2022/10/02 09:20:29;;;;;;;9.02;2.10;;;21.20;99.90;;;;;;5061731;28;20052;-53
2022/10/02 09:23:04;;;;;;;12.55;3.20;;;21.20;99.90;;;;;;5067796;28;20135;-52
2022/10/02 09:25:45;;;;;;;14.77;3.53;;;21.40;99.90;;;;;;5073349;28;20044;-52
2022/10/02 09:28:38;;;;;;;10.38;2.88;;;20.70;99.90;;;;;;5073374;28;20052;-53
2022/10/02 09:31:05;;;;;;;14.35;2.65;;;19.90;99.90;;;;;;5075320;28;20044;-54
2022/10/02 09:33:40;;;;;;;11.23;2.65;;;19.30;99.90;;;;;;5077995;28;20058;-51
2022/10/02 09:36:10;;;;;;;13.35;2.47;;;18.80;99.90;;;;;;5060410;28;20048;-52
2022/10/02 09:39:01;;;;;;;12.95;2.70;;;19.10;99.90;;;;;;5076233;28;20105;-53
2022/10/02 09:42:09;;;;;;;13.90;2.83;;;19.00;99.90;;;;;;5074207;28;20058;-51
2022/10/02 09:44:59;;;;;;;11.02;2.42;;;18.90;99.90;;;;;;5039300;28;20052;-53
2022/10/02 09:47:35;;;;;;;13.95;2.85;;;18.50;99.90;;;;;;5094926;28;20040;-53
2022/10/02 09:50:12;;;;;;;14.30;2.60;;;18.20;99.90;;;;;;5075819;28;20136;-52
2022/10/02 09:53:07;;;;;;;11.35;2.30;;;17.80;99.90;;;;;;5072235;28;20540;-41
2022/10/02 09:56:25;;;;;;;12.98;2.50;;;18.00;99.90;;;;;;5043758;28;20090;-41
2022/10/02 09:59:19;;;;;;;9.00;2.70;;;18.50;99.90;;;;;;5043380;28;20044;-42
2022/10/02 10:02:26;;;;;;;11.13;2.38;;;19.40;99.90;;;;;;5071247;28;20079;-43
2022/10/02 10:05:17;;;;;;;11.98;2.72;;;20.50;99.90;;;;;;5046594;28;20151;-42
2022/10/02 10:08:21;;;;;;;11.60;2.67;;;21.10;99.90;;;;;;5024543;28;20063;-42
2022/10/02 10:11:09;;;;;;;11.85;3.55;;;21.40;99.90;;;;;;5069159;28;20482;-54
2022/10/02 10:14:17;;;;;;;8.30;2.17;;;21.90;99.90;;;;;;5069875;28;20719;-51
2022/10/02 10:17:10;;;;;;;11.13;2.70;;;22.50;99.90;;;;;;5070948;28;20173;-53
2022/10/02 10:19:49;;;;;;;11.20;2.67;;;23.10;99.90;;;;;;5068791;28;20048;-42
2022/10/02 10:22:40;;;;;;;10.88;2.45;;;23.10;99.90;;;;;;5060977;28;20047;-44
2022/10/02 10:25:43;;;;;;;10.50;2.97;;;22.90;99.90;;;;;;5074271;28;20730;-53
2022/10/02 10:28:18;;;;;;;12.95;4.45;;;22.80;98.10;;;;;;5073553;28;20059;-42
2022/10/02 10:31:23;;;;;;;9.80;2.50;;;23.70;99.40;;;;;;5072293;28;20376;-42
2022/10/02 10:34:11;;;;;;;12.45;3.67;;;24.10;94.30;;;;;;5075894;28;20519;-42
2022/10/02 10:39:58;;;;;;;9.57;3.58;;;25.00;99.90;;;;;;5088576;27;21153;-42
2022/10/02 10:42:51;;;;;;;10.55;3.53;;;24.80;99.80;;;;;;5073329;28;20087;-56
2022/10/02 10:45:29;;;;;;;9.82;2.70;;;25.80;98.30;;;;;;5072769;28;20051;-54
2022/10/02 10:48:40;;;;;;;10.52;3.00;;;26.30;93.60;;;;;;5072781;28;20085;-52
2022/10/02 10:51:21;;;;;;;11.52;3.22;;;26.20;91.70;;;;;;5070066;28;20453;-43
2022/10/02 10:54:24;;;;;;;9.10;2.63;;;26.50;88.70;;;;;;5075108;28;20044;-54
2022/10/02 10:57:18;;;;;;;9.35;2.60;;;26.40;80.10;;;;;;5074582;28;20058;-43
2022/10/02 10:59:56;;;;;;;9.38;3.22;;;25.80;73.70;;;;;;5076871;28;20509;-42
2022/10/02 11:02:35;;;;;;;9.30;2.53;;;25.90;74.10;;;;;;5063059;28;20197;-43
2022/10/02 11:05:21;;;;;;;14.10;3.33;;;25.40;72.50;;;;;;5072844;28;20094;-42
2022/10/02 11:08:08;;;;;;;9.20;2.53;;;25.10;70.10;;;;;;5052678;28;20059;-54
2022/10/02 11:10:43;;;;;;;9.23;2.55;;;24.30;72.80;;;;;;5072906;28;20465;-41
2022/10/02 11:13:29;;;;;;;8.80;3.08;;;24.60;76.70;;;;;;5055864;28;20040;-46
2022/10/02 11:16:16;;;;;;;10.02;2.65;;;25.00;74.90;;;;;;5077984;28;20524;-42
2022/10/02 11:19:08;;;;;;;7.25;2.67;;;24.80;73.60;;;;;;5067653;28;20052;-54
2022/10/02 11:21:51;;;;;;;6.82;2.35;;;25.50;73.30;;;;;;5073483;28;20051;-42
2022/10/02 11:24:55;;;;;;;7.97;2.35;;;24.80;69.60;;;;;;5072043;28;20502;-42
2022/10/02 11:27:42;;;;;;;9.82;2.28;;;24.00;69.50;;;;;;5071877;28;21120;-41
2022/10/02 11:30:37;;;;;;;9.02;3.03;;;23.40;73.30;;;;;;5071707;28;20087;-40
2022/10/02 11:33:15;;;;;;;10.02;2.75;;;22.20;91.90;;;;;;5073379;28;20510;-41
2022/10/02 11:35:48;;;;;;;8.93;2.00;;;20.70;99.90;;;;;;5074490;28;20933;-39
2022/10/02 11:38:15;;;;;;;11.88;4.05;;;19.50;99.90;;;;;;5072271;28;20551;-42
2022/10/02 11:41:12;;;;;;;8.82;2.47;;;18.90;99.90;;;;;;5051619;28;20067;-40
2022/10/02 11:43:45;;;;;;;12.65;2.42;;;18.20;99.90;;;;;;5072656;28;20471;-40
2022/10/02 11:46:26;;;;;;;11.13;2.35;;;17.90;99.90;;;;;;5070595;28;20782;-43
2022/10/02 11:49:26;;;;;;;11.53;2.50;;;17.80;99.90;;;;;;5075423;28;20044;-53
2022/10/02 11:52:16;;;;;;;10.57;2.60;;;17.70;99.90;;;;;;5074448;28;20302;-41
2022/10/02 11:54:49;;;;;;;9.82;2.60;;;17.80;99.90;;;;;;5078225;28;20173;-42
2022/10/02 11:57:33;;;;;;;10.85;2.85;;;18.40;99.90;;;;;;5073369;28;20063;-41
2022/10/02 12:00:37;;;;;;;11.25;2.45;;;19.80;99.90;;;;;;5074443;28;20166;-52
2022/10/02 12:03:20;;;;;;;12.05;3.35;;;21.20;99.90;;;;;;5076236;28;20044;-55
2022/10/02 12:06:02;;;;;;;15.55;3.03;;;21.90;99.90;;;;;;5074436;28;20046;-44
2022/10/02 12:09:06;;;;;;;9.90;2.35;;;22.80;99.90;;;;;;5074480;28;20142;-54
2022/10/02 12:12:05;;;;;;;8.95;2.28;;;23.20;99.90;;;;;;5074869;28;20048;-54
2022/10/02 12:14:54;;;;;;;9.48;3.00;;;23.60;99.90;;;;;;5076188;28;20517;-54
2022/10/02 12:17:44;;;;;;;12.05;3.45;;;24.30;99.90;;;;;;5074788;28;20152;-54
2022/10/02 12:27:11;;;;;;;12.13;2.70;;;24.30;93.60;;;;;;5078709;28;20113;-53
2022/10/02 12:29:49;;;;;;;;;;;24.40;91.60;;;;;;5032921;28;20049;-40
2022/10/02 12:32:35;;;;;;;9.43;4.43;;;23.90;89.80;;;;;;5031277;28;19943;-42
2022/10/02 12:35:16;;;;;;;9.93;2.47;;;23.60;93.40;;;;;;5056725;28;20373;-53
2022/10/02 12:38:20;;;;;;;9.52;2.80;;;23.40;94.00;;;;;;5075565;28;20041;-53
2022/10/02 12:41:17;;;;;;;11.00;3.25;;;23.20;94.40;;;;;;5077046;28;20780;-41
2022/10/02 12:43:54;;;;;;;10.40;2.47;;;23.60;91.20;;;;;;5080033;28;20455;-43
2022/10/02 12:46:38;;;;;;;13.18;5.22;;;24.40;89.10;;;;;;5073500;28;20140;-42
2022/10/02 12:49:29;;;;;;;10.88;2.80;;;24.90;90.30;;;;;;5079624;28;20158;-41
2022/10/02 12:52:38;;;;;;;12.43;2.42;;;25.20;86.60;;;;;;5072526;28;20048;-43
2022/10/02 12:55:36;;;;;;;10.70;2.72;;;24.80;81.20;;;;;;5073853;28;20055;-42
2022/10/02 12:58:27;;;;;;;12.35;2.83;;;25.00;83.30;;;;;;5079374;28;20051;-45
2022/10/02 13:01:02;;;;;;;10.50;3.42;;;25.40;80.40;;;;;;5078820;28;20465;-42
2022/10/02 13:03:54;;;;;;;10.80;3.00;;;24.90;76.80;;;;;;5079073;28;20197;-44
2022/10/02 13:06:58;;;;;;;11.80;2.95;;;24.50;78.30;;;;;;5075401;28;20935;-45
2022/10/02 13:10:04;;;;;;;9.98;2.10;;;24.80;78.10;;;;;;5079132;28;20186;-45
2022/10/02 13:13:12;;;;;;;9.25;3.58;;;24.80;79.20;;;;;;5078127;28;20843;-44
2022/10/02 13:15:54;;;;;;;10.70;2.78;;;25.90;77.20;;;;;;5058381;28;20044;-54
2022/10/02 13:18:47;;;;;;;14.95;6.70;;;25.60;75.90;;;;;;5056999;28;20052;-43
2022/10/02 13:21:22;;;;;;;10.48;2.40;;;26.00;74.90;;;;;;5077217;28;20452;-54
2022/10/02 13:24:04;;;;;;;9.73;2.58;;;25.80;73.70;;;;;;5059226;28;20036;-51
2022/10/02 13:27:06;;;;;;;12.13;5.00;;;25.90;71.70;;;;;;5073917;28;20487;-46
2022/10/02 13:29:36;;;;;;;8.85;2.10;;;26.00;72.30;;;;;;5090958;28;20056;-52
2022/10/02 13:32:18;;;;;;;8.85;1.58;;;26.50;70.60;;;;;;5074971;28;20079;-54
2022/10/02 13:35:01;;;;;;;7.20;1.52;;;25.60;65.60;;;;;;5077410;28;20478;-54
2022/10/02 13:37:39;;;;;;;8.43;1.80;;;24.20;64.00;;;;;;5094055;28;20877;-45
2022/10/02 13:40:17;;;;;;;12.27;6.78;;;23.90;69.30;;;;;;5079339;28;20127;-43
2022/10/02 13:42:53;;;;;;;10.68;2.63;;;24.40;71.40;;;;;;5043850;28;20051;-43
2022/10/02 13:45:22;;;;;;;7.43;1.90;;;25.00;70.40;;;;;;5079351;28;20052;-53
2022/10/02 13:48:15;;;;;;;10.02;2.67;;;24.60;70.20;;;;;;5076407;28;20050;-53
2022/10/02 13:50:51;;;;;;;9.93;2.72;;;24.80;67.50;;;;;;5070843;28;20047;-43
2022/10/02 13:53:50;;;;;;;11.05;2.30;;;24.90;67.20;;;;;;5075934;28;20097;-44
2022/10/02 13:56:55;;;;;;;10.65;3.00;;;24.60;66.40;;;;;;5075587;28;20063;-42
2022/10/02 13:59:40;;;;;;;10.80;2.45;;;24.60;66.00;;;;;;5048161;28;20052;-42
2022/10/02 14:02:25;;;;;;;8.02;1.88;;;25.20;64.80;;;;;;5079267;28;20044;-46
2022/10/02 14:05:11;;;;;;;9.23;2.03;;;25.10;65.40;;;;;;5073113;28;20425;-46
2022/10/02 14:07:50;;;;;;;7.63;2.00;;;25.10;64.90;;;;;;5080439;28;20059;-44
2022/10/02 14:10:55;;;;;;;8.15;2.15;;;24.50;64.80;;;;;;5070649;28;20112;-43
2022/10/02 14:13:52;;;;;;;10.15;3.38;;;24.70;66.60;;;;;;5033034;28;20090;-43
2022/10/02 14:16:35;;;;;;;13.43;5.15;;;25.40;65.30;;;;;;5073338;28;20548;-42